Time;durP1;ratioP1;P1;durP2;ratioP2;P2;SDS_P1;SDS_P2;PMS_P1;PMS_P2;Temp;Humidity;BMP_temperature;BMP_pressure;BME280_temperature;BME280_humidity;BME280_pressure;Samples;Min_cycle;Max_cycle;Signal;HPM_P1;HPM_P2
2023/10/05 00:01:03;;;;;;;6.63;3.10;;;13.40;1.00;;;;;;5052453;28;20925;-73
2023/10/05 00:03:32;;;;;;;7.10;3.40;;;13.40;1.00;;;;;;5053253;28;20163;-77
2023/10/05 00:06:05;;;;;;;7.60;3.37;;;13.40;1.00;;;;;;5034761;28;20516;-73
2023/10/05 00:08:35;;;;;;;6.97;4.20;;;13.40;1.00;;;;;;5052022;28;20466;-73
2023/10/05 00:11:01;;;;;;;8.97;4.60;;;13.40;1.00;;;;;;5053239;28;20456;-74
2023/10/05 00:13:27;;;;;;;4.83;2.93;;;13.40;1.00;;;;;;5051935;28;20925;-74
2023/10/05 00:15:53;;;;;;;9.03;4.43;;;13.40;1.00;;;;;;5050483;28;20195;-74
2023/10/05 00:18:21;;;;;;;8.13;3.43;;;13.50;1.00;;;;;;5053368;28;20627;-73
2023/10/05 00:20:48;;;;;;;5.33;3.13;;;13.50;1.00;;;;;;5051943;28;20448;-75
2023/10/05 00:23:14;;;;;;;9.73;3.20;;;13.50;1.00;;;;;;5052917;28;20781;-75
2023/10/05 00:25:40;;;;;;;11.87;3.43;;;13.50;1.00;;;;;;5050912;28;20465;-73
2023/10/05 00:28:10;;;;;;;7.13;3.47;;;13.50;1.00;;;;;;5051353;28;20221;-73
2023/10/05 00:30:37;;;;;;;6.30;3.90;;;13.50;1.00;;;;;;5051424;28;20205;-75
2023/10/05 00:33:09;;;;;;;8.60;3.67;;;13.50;1.00;;;;;;5052814;28;20380;-76
2023/10/05 00:35:37;;;;;;;7.67;3.57;;;13.50;1.00;;;;;;5050023;28;21218;-75
2023/10/05 00:38:12;;;;;;;9.03;4.37;;;13.60;1.00;;;;;;5052065;28;20499;-76
2023/10/05 00:45:47;;;;;;;6.50;3.00;;;13.50;1.00;;;;;;5051893;28;20429;-72
2023/10/05 00:51:13;;;;;;;12.13;3.70;;;13.50;1.00;;;;;;5012844;28;20531;-76
2023/10/05 00:53:41;;;;;;;8.00;3.87;;;13.50;1.00;;;;;;5051393;28;20494;-79
2023/10/05 00:56:08;;;;;;;7.87;3.87;;;13.50;1.00;;;;;;5055440;28;20403;-75
2023/10/05 00:58:44;;;;;;;8.37;3.60;;;13.40;1.00;;;;;;5059220;28;20444;-73
2023/10/05 01:01:24;;;;;;;15.57;3.70;;;13.40;1.00;;;;;;5058120;28;20399;-72
2023/10/05 01:12:43;;;;;;;10.80;4.00;;;13.40;1.00;;;;;;4977707;28;20395;-73
2023/10/05 01:15:03;;;;;;;11.37;3.53;;;13.50;1.00;;;;;;5052134;28;20854;-75
2023/10/05 01:17:30;;;;;;;10.40;4.20;;;13.40;1.00;;;;;;5059164;28;20839;-73
2023/10/05 01:20:07;;;;;;;7.20;4.30;;;13.40;1.00;;;;;;5058034;28;20789;-75
2023/10/05 01:22:34;;;;;;;9.63;4.50;;;13.40;1.00;;;;;;5059203;28;20458;-72
2023/10/05 01:25:02;;;;;;;7.63;3.70;;;13.50;1.00;;;;;;5058360;28;20931;-75
2023/10/05 01:27:31;;;;;;;12.70;3.83;;;13.50;1.00;;;;;;5059056;28;20436;-75
2023/10/05 01:29:57;;;;;;;12.80;4.23;;;13.50;1.00;;;;;;5058869;28;20943;-73
2023/10/05 01:32:24;;;;;;;7.60;4.27;;;13.50;1.00;;;;;;5039576;28;20425;-73
2023/10/05 01:34:50;;;;;;;7.83;3.63;;;13.50;1.00;;;;;;5040344;28;20642;-75
2023/10/05 01:37:22;;;;;;;7.73;3.83;;;13.50;1.00;;;;;;5059064;28;20411;-73
2023/10/05 01:39:51;;;;;;;8.80;4.20;;;13.50;1.00;;;;;;5058922;28;20411;-73
2023/10/05 01:42:16;;;;;;;4.73;3.20;;;13.50;1.00;;;;;;5059031;28;20771;-72
2023/10/05 01:44:51;;;;;;;3.60;3.30;;;13.50;1.00;;;;;;5058081;28;20388;-74
2023/10/05 01:47:18;;;;;;;11.23;4.33;;;13.60;1.00;;;;;;5057970;28;20190;-75
2023/10/05 01:49:50;;;;;;;10.70;4.30;;;13.60;1.00;;;;;;5057406;28;20471;-77
2023/10/05 01:52:20;;;;;;;7.80;3.93;;;13.60;1.00;;;;;;5058576;28;20802;-74
2023/10/05 01:54:46;;;;;;;7.67;3.80;;;13.60;1.00;;;;;;5057907;28;20468;-74
2023/10/05 01:57:16;;;;;;;11.47;4.07;;;13.70;1.00;;;;;;5058858;28;20437;-73
2023/10/05 01:59:43;;;;;;;8.03;4.47;;;13.70;1.00;;;;;;5057747;28;20262;-75
2023/10/05 02:02:10;;;;;;;13.20;4.10;;;13.70;1.00;;;;;;5055415;28;20445;-73
2023/10/05 02:04:49;;;;;;;7.17;3.33;;;13.70;1.00;;;;;;5054468;28;20981;-74
2023/10/05 02:07:15;;;;;;;8.23;3.90;;;13.70;1.00;;;;;;5036684;28;20418;-72
2023/10/05 02:09:41;;;;;;;5.87;4.03;;;13.60;1.00;;;;;;5035445;28;20453;-74
2023/10/05 02:12:07;;;;;;;6.17;3.83;;;13.70;1.00;;;;;;5034753;28;20399;-72
2023/10/05 02:14:36;;;;;;;7.03;3.60;;;13.70;1.00;;;;;;5034633;28;20448;-75
2023/10/05 02:17:03;;;;;;;7.60;4.00;;;13.70;1.00;;;;;;5048270;28;20436;-75
2023/10/05 02:19:30;;;;;;;8.00;3.97;;;13.70;1.00;;;;;;5054537;28;20425;-72
2023/10/05 02:21:58;;;;;;;13.37;4.47;;;13.60;1.00;;;;;;5055264;28;20898;-73
2023/10/05 02:24:25;;;;;;;4.90;2.93;;;13.60;1.00;;;;;;5054470;28;20460;-73
2023/10/05 02:29:24;;;;;;;5.17;3.83;;;13.70;1.00;;;;;;5055143;28;20487;-73
2023/10/05 02:31:58;;;;;;;8.93;4.10;;;13.60;1.00;;;;;;5053149;28;20791;-75
2023/10/05 02:37:12;;;;;;;16.23;4.50;;;13.60;1.00;;;;;;5054019;28;20375;-71
2023/10/05 02:39:38;;;;;;;8.40;3.93;;;13.60;1.00;;;;;;5035201;28;20410;-73
2023/10/05 02:42:06;;;;;;;11.97;5.13;;;13.70;1.00;;;;;;5017390;28;20423;-73
2023/10/05 02:44:35;;;;;;;10.13;4.43;;;13.70;1.00;;;;;;5036730;28;20440;-74
2023/10/05 02:47:08;;;;;;;9.80;4.43;;;13.70;1.00;;;;;;5054941;28;20485;-75
2023/10/05 02:49:39;;;;;;;14.57;4.10;;;13.70;1.00;;;;;;5052706;28;20457;-75
2023/10/05 02:52:06;;;;;;;16.23;5.50;;;13.70;1.00;;;;;;5054814;28;20396;-72
2023/10/05 02:54:32;;;;;;;9.97;4.33;;;13.80;1.00;;;;;;5053774;28;20447;-74
2023/10/05 02:56:58;;;;;;;11.03;4.30;;;13.80;1.00;;;;;;5054204;28;20488;-73
2023/10/05 02:59:27;;;;;;;8.90;4.50;;;13.80;1.00;;;;;;5054286;28;20174;-75
2023/10/05 03:02:09;;;;;;;7.23;4.23;;;13.90;1.00;;;;;;5054678;28;20159;-72
2023/10/05 03:04:47;;;;;;;9.17;3.90;;;13.90;1.00;;;;;;5050383;28;20429;-75
2023/10/05 03:07:17;;;;;;;18.50;5.23;;;13.90;1.00;;;;;;5054652;28;20425;-74
2023/10/05 03:09:47;;;;;;;16.47;4.53;;;13.90;1.00;;;;;;5053747;28;20535;-75
2023/10/05 03:12:13;;;;;;;5.83;3.50;;;13.90;1.00;;;;;;5052207;28;20418;-74
2023/10/05 03:14:45;;;;;;;8.40;4.20;;;13.90;1.00;;;;;;5048738;28;20412;-71
2023/10/05 03:17:18;;;;;;;8.93;3.43;;;13.90;1.00;;;;;;5053391;28;20478;-72
2023/10/05 03:19:44;;;;;;;8.37;3.83;;;13.90;1.00;;;;;;5052981;28;20433;-73
2023/10/05 03:22:12;;;;;;;12.20;4.40;;;14.00;1.00;;;;;;5054270;28;20731;-72
2023/10/05 03:24:44;;;;;;;10.83;4.20;;;14.00;1.00;;;;;;5035130;28;20539;-72
2023/10/05 03:27:11;;;;;;;8.83;3.90;;;13.90;1.00;;;;;;5035407;28;20447;-71
2023/10/05 03:29:38;;;;;;;11.90;4.30;;;13.80;1.00;;;;;;5051716;28;20608;-72
2023/10/05 03:34:34;;;;;;;7.30;3.17;;;13.80;1.00;;;;;;5052062;28;20433;-72
2023/10/05 03:37:08;;;;;;;12.10;4.63;;;13.70;1.00;;;;;;5053878;28;20484;-72
2023/10/05 03:39:39;;;;;;;20.70;3.73;;;13.70;1.00;;;;;;5054046;28;20397;-70
2023/10/05 03:42:05;;;;;;;8.17;3.80;;;13.80;1.00;;;;;;5036031;28;20410;-72
2023/10/05 03:44:31;;;;;;;7.90;3.87;;;13.80;1.00;;;;;;5050846;28;20436;-69
2023/10/05 03:46:57;;;;;;;9.13;5.23;;;13.70;1.00;;;;;;5053779;28;20754;-69
2023/10/05 03:49:23;;;;;;;5.60;3.87;;;13.80;1.00;;;;;;5052437;28;20368;-72
2023/10/05 03:51:49;;;;;;;7.23;3.80;;;13.70;1.00;;;;;;5052730;28;20467;-73
2023/10/05 03:54:24;;;;;;;7.27;3.00;;;13.70;1.00;;;;;;5052750;28;20921;-71
2023/10/05 03:56:56;;;;;;;6.00;3.83;;;13.70;17.80;;;;;;5053631;28;20417;-69
2023/10/05 03:59:22;;;;;;;4.90;2.97;;;13.70;35.90;;;;;;5053583;28;20433;-69
2023/10/05 04:01:51;;;;;;;6.27;3.00;;;13.80;55.20;;;;;;5053487;28;20456;-71
2023/10/05 04:04:21;;;;;;;6.53;3.17;;;13.70;65.30;;;;;;5049871;28;20187;-71
2023/10/05 04:06:51;;;;;;;4.40;3.27;;;13.70;83.30;;;;;;5052137;28;20532;-69
2023/10/05 04:09:19;;;;;;;5.50;2.37;;;13.70;92.60;;;;;;5034790;28;20785;-70
2023/10/05 04:11:45;;;;;;;6.70;2.67;;;13.80;99.90;;;;;;5053405;28;20412;-71
2023/10/05 04:14:14;;;;;;;4.73;2.10;;;13.80;99.90;;;;;;5052516;28;20390;-68
2023/10/05 04:16:42;;;;;;;5.40;2.40;;;13.80;99.90;;;;;;5050255;28;20457;-70
2023/10/05 04:19:11;;;;;;;4.20;1.93;;;13.70;99.90;;;;;;5052047;28;20895;-69
2023/10/05 04:21:37;;;;;;;5.13;2.40;;;13.70;99.90;;;;;;5053276;28;20387;-69
2023/10/05 04:24:03;;;;;;;2.03;1.93;;;13.70;99.90;;;;;;5051334;28;20737;-69
2023/10/05 04:26:37;;;;;;;3.70;1.80;;;13.70;99.90;;;;;;5052874;28;20440;-71
2023/10/05 04:29:04;;;;;;;7.10;2.77;;;13.60;99.90;;;;;;5052795;28;20412;-69
2023/10/05 04:31:32;;;;;;;6.80;2.30;;;13.60;99.90;;;;;;5052313;28;20452;-70
2023/10/05 04:33:59;;;;;;;3.13;1.90;;;13.50;99.90;;;;;;5050819;28;20935;-69
2023/10/05 04:36:25;;;;;;;6.90;1.80;;;13.50;99.90;;;;;;5044954;28;20491;-69
2023/10/05 04:38:56;;;;;;;5.03;1.97;;;13.50;99.90;;;;;;5053002;28;20409;-68
2023/10/05 04:41:35;;;;;;;5.30;2.20;;;13.50;99.90;;;;;;5051876;28;20413;-70
2023/10/05 04:44:01;;;;;;;4.30;2.67;;;13.40;99.90;;;;;;5051994;28;20929;-70
2023/10/05 04:46:30;;;;;;;5.27;2.07;;;13.40;99.90;;;;;;5052616;28;20425;-70
2023/10/05 04:48:56;;;;;;;3.20;1.63;;;13.50;99.90;;;;;;5051833;28;20528;-69
2023/10/05 04:51:30;;;;;;;4.40;1.73;;;13.50;99.90;;;;;;5052467;28;20488;-71
2023/10/05 04:53:59;;;;;;;2.87;1.90;;;13.50;99.90;;;;;;5051829;28;20400;-68
2023/10/05 04:56:43;;;;;;;4.10;1.70;;;13.50;99.90;;;;;;5052547;28;20445;-68
2023/10/05 05:01:56;;;;;;;5.40;1.70;;;13.40;99.90;;;;;;5051618;28;20462;-70
2023/10/05 05:04:52;;;;;;;3.17;1.67;;;13.40;99.90;;;;;;5031723;28;20492;-69
2023/10/05 05:07:21;;;;;;;3.77;1.40;;;13.40;99.90;;;;;;5032703;28;20417;-71
2023/10/05 05:09:50;;;;;;;5.07;1.50;;;13.40;99.90;;;;;;5032595;28;20450;-68
2023/10/05 05:12:16;;;;;;;2.53;1.50;;;13.20;99.90;;;;;;5052497;28;20432;-68
2023/10/05 05:14:45;;;;;;;3.93;1.70;;;13.20;99.90;;;;;;5051522;28;20405;-69
2023/10/05 05:17:18;;;;;;;4.37;2.03;;;13.20;99.90;;;;;;5049972;28;20432;-68
2023/10/05 05:19:46;;;;;;;8.20;1.40;;;13.20;99.90;;;;;;5050114;28;20441;-70
2023/10/05 05:22:12;;;;;;;2.07;1.60;;;13.20;99.90;;;;;;5032708;28;20596;-67
2023/10/05 05:24:38;;;;;;;5.27;1.67;;;13.20;99.90;;;;;;5031605;28;20936;-68
2023/10/05 05:27:11;;;;;;;4.50;1.53;;;13.20;99.90;;;;;;5050175;28;20531;-68
2023/10/05 05:29:36;;;;;;;2.47;1.73;;;13.20;99.90;;;;;;5052283;28;20491;-68
2023/10/05 05:32:36;;;;;;;3.40;1.83;;;13.20;99.90;;;;;;5051496;28;20515;-70
2023/10/05 05:34:55;;;;;;;4.53;1.63;;;13.20;99.90;;;;;;5047425;28;20285;-68
2023/10/05 05:37:30;;;;;;;5.00;1.60;;;13.10;99.90;;;;;;5052325;28;20509;-69
2023/10/05 05:39:56;;;;;;;1.87;1.30;;;13.20;99.90;;;;;;5052128;28;20220;-68
2023/10/05 05:42:29;;;;;;;2.67;1.37;;;13.20;99.90;;;;;;5036077;28;20435;-68
2023/10/05 05:44:55;;;;;;;6.93;2.13;;;13.10;99.90;;;;;;5053350;28;20463;-70
2023/10/05 05:47:21;;;;;;;3.53;1.23;;;13.20;99.90;;;;;;5041963;28;20412;-68
2023/10/05 05:49:47;;;;;;;6.67;1.33;;;13.20;99.90;;;;;;5053617;28;20666;-69
2023/10/05 05:52:14;;;;;;;2.63;1.40;;;13.20;99.90;;;;;;5057858;28;20185;-69
2023/10/05 05:54:41;;;;;;;7.63;1.60;;;13.30;99.90;;;;;;5053071;28;20477;-70
2023/10/05 05:57:07;;;;;;;3.97;1.47;;;13.30;99.90;;;;;;5054810;28;20521;-69
2023/10/05 05:59:42;;;;;;;2.43;1.20;;;13.30;99.90;;;;;;5055912;28;20732;-69
2023/10/05 06:02:09;;;;;;;2.07;1.23;;;13.30;99.90;;;;;;5037802;28;20432;-68
2023/10/05 06:04:40;;;;;;;9.87;1.87;;;13.20;99.90;;;;;;5054919;28;20403;-70
2023/10/05 06:07:13;;;;;;;2.67;1.37;;;13.20;99.90;;;;;;5055761;28;20400;-69
2023/10/05 06:09:40;;;;;;;3.80;1.73;;;13.20;99.90;;;;;;5037811;28;20781;-68
2023/10/05 06:12:06;;;;;;;3.13;1.50;;;13.30;99.90;;;;;;5055716;28;20871;-69
2023/10/05 06:14:34;;;;;;;8.47;1.80;;;13.30;99.90;;;;;;5051619;28;20906;-70
2023/10/05 06:17:00;;;;;;;2.20;1.33;;;13.30;99.90;;;;;;5055743;28;20412;-68
2023/10/05 06:19:27;;;;;;;5.47;1.53;;;13.30;99.90;;;;;;5055399;28;20401;-69
2023/10/05 06:21:53;;;;;;;3.70;1.73;;;13.30;99.90;;;;;;5055462;28;20528;-69
2023/10/05 06:24:18;;;;;;;2.00;1.60;;;13.20;99.90;;;;;;5053547;28;20873;-71
2023/10/05 06:26:45;;;;;;;6.07;1.60;;;13.30;99.90;;;;;;5055318;28;20207;-70
2023/10/05 06:29:13;;;;;;;4.43;1.50;;;13.20;99.90;;;;;;5054272;28;20167;-70
2023/10/05 06:31:40;;;;;;;4.23;2.00;;;13.30;99.90;;;;;;5055291;28;20453;-69
2023/10/05 06:34:09;;;;;;;9.33;1.93;;;13.30;99.90;;;;;;5053618;28;20408;-69
2023/10/05 06:36:41;;;;;;;2.67;1.20;;;13.30;99.90;;;;;;5055040;28;20425;-71
2023/10/05 06:39:14;;;;;;;5.90;1.63;;;13.30;99.90;;;;;;5055169;28;20401;-69
2023/10/05 06:41:40;;;;;;;3.70;1.80;;;13.30;99.90;;;;;;5055193;28;20773;-70
2023/10/05 06:44:10;;;;;;;4.23;1.60;;;13.30;99.90;;;;;;5053242;28;20414;-70
2023/10/05 06:46:42;;;;;;;2.97;1.80;;;13.30;99.90;;;;;;5054864;28;20421;-71
2023/10/05 06:49:09;;;;;;;3.13;1.63;;;13.40;99.90;;;;;;5055056;28;20495;-69
2023/10/05 06:51:35;;;;;;;3.03;1.47;;;13.40;99.90;;;;;;5055045;28;20486;-69
2023/10/05 06:54:01;;;;;;;5.43;2.60;;;13.40;99.90;;;;;;5034526;28;20457;-71
2023/10/05 06:56:27;;;;;;;3.57;2.00;;;13.40;99.90;;;;;;5053514;28;20419;-71
2023/10/05 06:58:54;;;;;;;5.10;2.13;;;13.40;99.90;;;;;;5053771;28;20179;-71
2023/10/05 07:01:23;;;;;;;2.43;1.50;;;13.40;99.90;;;;;;5053848;28;20983;-71
2023/10/05 07:03:58;;;;;;;4.90;1.97;;;13.40;99.90;;;;;;5035837;28;20421;-70
2023/10/05 07:06:25;;;;;;;2.77;1.20;;;13.40;99.90;;;;;;5054515;28;20518;-69
2023/10/05 07:08:53;;;;;;;6.43;1.57;;;13.40;99.90;;;;;;5054768;28;20413;-69
2023/10/05 07:11:19;;;;;;;4.10;1.23;;;13.40;99.90;;;;;;5053546;28;20507;-70
2023/10/05 07:13:46;;;;;;;4.93;1.73;;;13.40;99.90;;;;;;5051659;28;20406;-71
2023/10/05 07:16:13;;;;;;;3.00;1.40;;;13.50;99.90;;;;;;5054563;28;20444;-70
2023/10/05 07:18:41;;;;;;;3.40;1.53;;;13.50;99.90;;;;;;5054365;28;20444;-68
2023/10/05 07:21:11;;;;;;;7.77;1.97;;;13.60;99.90;;;;;;5054425;28;20410;-69
2023/10/05 07:23:38;;;;;;;5.33;2.47;;;13.60;99.90;;;;;;5054303;28;20409;-70
2023/10/05 07:26:09;;;;;;;6.93;1.47;;;13.60;99.90;;;;;;5052784;28;20511;-69
2023/10/05 07:28:35;;;;;;;2.20;1.30;;;13.70;99.90;;;;;;5054160;28;20793;-70
2023/10/05 07:31:03;;;;;;;2.13;1.50;;;13.70;99.90;;;;;;5052639;28;20467;-70
2023/10/05 07:33:29;;;;;;;3.80;1.77;;;13.70;99.90;;;;;;5052539;28;20452;-72
2023/10/05 07:35:56;;;;;;;6.77;1.77;;;13.70;99.90;;;;;;5053404;28;20421;-69
2023/10/05 07:38:26;;;;;;;7.33;1.50;;;13.70;99.90;;;;;;5054116;28;20858;-69
2023/10/05 07:40:53;;;;;;;4.93;2.00;;;13.80;99.90;;;;;;5035487;28;20865;-69
2023/10/05 07:43:19;;;;;;;6.03;1.87;;;13.80;99.90;;;;;;5053991;28;20402;-70
2023/10/05 07:45:45;;;;;;;7.27;2.00;;;13.80;99.90;;;;;;5051843;28;20567;-70
2023/10/05 07:48:11;;;;;;;4.67;2.03;;;13.90;99.90;;;;;;5053140;28;20201;-71
2023/10/05 07:50:37;;;;;;;4.10;1.83;;;14.00;99.90;;;;;;5053352;28;20995;-69
2023/10/05 07:53:03;;;;;;;9.43;2.50;;;14.00;99.90;;;;;;5035889;28;20406;-70
2023/10/05 07:55:29;;;;;;;5.37;1.87;;;14.00;99.90;;;;;;5052748;28;20755;-69
2023/10/05 07:57:55;;;;;;;6.07;1.47;;;14.10;99.90;;;;;;5035949;28;20418;-71
2023/10/05 08:00:21;;;;;;;8.97;1.87;;;14.20;99.90;;;;;;5051659;28;20182;-70
2023/10/05 08:02:47;;;;;;;12.27;2.27;;;14.20;99.90;;;;;;5053499;28;20434;-71
2023/10/05 08:05:13;;;;;;;2.77;1.77;;;14.30;99.90;;;;;;5051719;28;20187;-71
2023/10/05 08:07:40;;;;;;;2.93;1.67;;;14.30;99.90;;;;;;5052424;28;20558;-71
2023/10/05 08:10:21;;;;;;;9.30;2.00;;;14.40;99.90;;;;;;5053381;28;20515;-70
2023/10/05 08:12:50;;;;;;;7.53;1.70;;;14.40;99.90;;;;;;5034522;28;20436;-71
2023/10/05 08:15:19;;;;;;;8.33;3.10;;;14.40;96.40;;;;;;5052134;28;20926;-69
2023/10/05 08:17:47;;;;;;;5.33;2.40;;;14.60;98.80;;;;;;5035728;28;20449;-70
2023/10/05 08:20:15;;;;;;;5.33;1.70;;;14.70;99.50;;;;;;5053298;28;20412;-71
2023/10/05 08:22:41;;;;;;;4.40;1.63;;;14.80;94.60;;;;;;5053225;28;20413;-69
2023/10/05 08:25:11;;;;;;;4.23;2.00;;;14.80;84.20;;;;;;5051104;28;20437;-71
2023/10/05 08:27:42;;;;;;;4.70;2.37;;;14.90;85.80;;;;;;5052022;28;20198;-71
2023/10/05 08:30:12;;;;;;;8.53;2.20;;;15.00;37.20;;;;;;5051065;28;20817;-69
2023/10/05 08:32:39;;;;;;;4.77;1.90;;;15.00;1.00;;;;;;5053069;28;20472;-69
2023/10/05 08:35:14;;;;;;;6.10;1.83;;;15.00;1.00;;;;;;5052041;28;20429;-70
2023/10/05 08:37:48;;;;;;;11.93;2.67;;;15.10;1.00;;;;;;5053183;28;20435;-71
2023/10/05 08:43:08;;;;;;;4.20;2.30;;;15.40;1.00;;;;;;5032296;28;20405;-72
2023/10/05 08:45:46;;;;;;;4.20;2.43;;;15.60;1.00;;;;;;5051234;28;20448;-71
2023/10/05 08:48:18;;;;;;;3.30;2.20;;;15.70;1.00;;;;;;5053024;28;20405;-71
2023/10/05 08:50:46;;;;;;;7.60;1.90;;;15.80;1.00;;;;;;5052945;28;20452;-70
2023/10/05 08:53:14;;;;;;;7.17;2.57;;;15.80;1.00;;;;;;5051668;28;20444;-72
2023/10/05 08:55:45;;;;;;;8.10;2.13;;;16.00;1.00;;;;;;5051871;28;20508;-70
2023/10/05 08:58:18;;;;;;;7.53;2.33;;;16.10;1.00;;;;;;5052715;28;20436;-70
2023/10/05 09:00:48;;;;;;;4.73;2.17;;;16.20;1.00;;;;;;5051551;28;20433;-70
2023/10/05 09:03:35;;;;;;;8.43;2.90;;;16.40;1.00;;;;;;5052686;28;20401;-71
2023/10/05 09:06:13;;;;;;;15.37;2.70;;;16.60;99.90;;;;;;5049703;28;20450;-71
2023/10/05 09:11:31;;;;;;;11.60;2.10;;;17.20;99.90;;;;;;5052828;28;20452;-73
2023/10/05 09:14:12;;;;;;;3.73;2.13;;;17.50;99.90;;;;;;5051025;28;20467;-71
2023/10/05 09:16:41;;;;;;;15.73;2.83;;;17.60;99.90;;;;;;5049527;28;20453;-71
2023/10/05 09:19:29;;;;;;;4.97;2.00;;;17.70;99.90;;;;;;5055918;28;20408;-74
2023/10/05 09:22:22;;;;;;;11.13;3.10;;;17.90;99.90;;;;;;5056724;28;20770;-73
2023/10/05 09:24:52;;;;;;;3.10;1.50;;;18.10;99.90;;;;;;5055059;28;20463;-70
2023/10/05 09:27:19;;;;;;;5.90;2.07;;;18.40;99.90;;;;;;5038500;28;20460;-73
2023/10/05 09:29:46;;;;;;;6.13;2.10;;;18.40;99.90;;;;;;5037702;28;20465;-70
2023/10/05 09:32:25;;;;;;;10.83;1.93;;;18.50;95.20;;;;;;5056638;28;20425;-75
2023/10/05 09:34:51;;;;;;;11.60;2.60;;;18.50;68.80;;;;;;5055039;28;20517;-75
2023/10/05 09:37:23;;;;;;;6.13;2.20;;;18.40;50.20;;;;;;5036848;28;20786;-73
2023/10/05 09:39:49;;;;;;;5.83;2.30;;;18.10;17.00;;;;;;5056350;28;20421;-72
2023/10/05 09:42:17;;;;;;;3.80;1.70;;;17.80;1.00;;;;;;5037056;28;20459;-75
2023/10/05 09:44:51;;;;;;;5.40;2.37;;;17.60;1.00;;;;;;5054533;28;20840;-73
2023/10/05 09:47:27;;;;;;;4.87;1.60;;;17.60;1.00;;;;;;5056212;28;20412;-71
2023/10/05 09:49:55;;;;;;;6.17;2.30;;;17.60;1.00;;;;;;5056004;28;20813;-71
2023/10/05 09:52:24;;;;;;;4.33;1.90;;;17.80;1.00;;;;;;5054787;28;20410;-73
2023/10/05 09:54:50;;;;;;;4.30;1.40;;;18.20;1.00;;;;;;5053381;28;20425;-72
2023/10/05 09:57:23;;;;;;;11.10;2.03;;;18.70;1.00;;;;;;5056061;28;20937;-71
2023/10/05 10:00:11;;;;;;;10.50;2.63;;;19.20;1.00;;;;;;5053607;28;20436;-70
2023/10/05 10:02:39;;;;;;;6.13;2.00;;;19.50;1.00;;;;;;5055073;28;20428;-70
2023/10/05 10:05:25;;;;;;;2.57;2.10;;;19.10;1.00;;;;;;5053612;28;20940;-71
2023/10/05 10:07:56;;;;;;;5.80;2.53;;;18.50;1.00;;;;;;5054776;28;20439;-72
2023/10/05 10:10:25;;;;;;;5.83;1.63;;;18.50;1.00;;;;;;5054696;28;20456;-74
2023/10/05 10:12:52;;;;;;;7.67;2.10;;;19.00;1.00;;;;;;5054898;28;20944;-74
2023/10/05 10:15:31;;;;;;;13.20;2.17;;;19.30;1.00;;;;;;5053505;28;20481;-73
2023/10/05 10:18:30;;;;;;;5.83;2.10;;;19.10;1.00;;;;;;5055591;28;20398;-71
2023/10/05 10:20:56;;;;;;;4.07;2.07;;;19.20;1.00;;;;;;5054571;28;20831;-75
2023/10/05 10:23:24;;;;;;;7.33;2.27;;;19.60;1.00;;;;;;5035592;28;20801;-74
2023/10/05 10:25:53;;;;;;;4.70;1.90;;;20.00;1.00;;;;;;5054562;28;20453;-74
2023/10/05 10:28:39;;;;;;;6.43;2.47;;;20.30;1.00;;;;;;5054354;28;20459;-71
2023/10/05 10:31:42;;;;;;;5.60;1.57;;;20.30;1.00;;;;;;5054156;28;20543;-69
2023/10/05 10:34:19;;;;;;;6.80;1.40;;;20.40;1.00;;;;;;5037187;28;20438;-70
2023/10/05 10:36:52;;;;;;;9.43;2.13;;;20.20;1.00;;;;;;5055192;28;20449;-77
2023/10/05 10:39:27;;;;;;;7.50;1.83;;;19.80;1.00;;;;;;5055313;28;20413;-76
2023/10/05 10:42:04;;;;;;;17.07;2.10;;;19.20;1.00;;;;;;5055016;28;20408;-77
2023/10/05 10:44:57;;;;;;;9.37;2.40;;;18.40;1.00;;;;;;5052929;28;20443;-75
2023/10/05 10:47:24;;;;;;;6.37;2.30;;;18.00;1.00;;;;;;5055115;28;20405;-75
2023/10/05 10:50:22;;;;;;;5.60;2.03;;;17.60;1.00;;;;;;5037120;28;20428;-76
2023/10/05 10:52:51;;;;;;;5.30;2.10;;;17.20;1.00;;;;;;5054343;28;20429;-75
2023/10/05 10:55:20;;;;;;;5.03;1.77;;;16.80;1.00;;;;;;5053858;28;20436;-76
2023/10/05 10:57:53;;;;;;;10.80;2.20;;;16.90;1.00;;;;;;5053724;28;20401;-73
2023/10/05 11:03:15;;;;;;;6.50;2.20;;;17.00;1.00;;;;;;5035072;28;20409;-75
2023/10/05 11:05:51;;;;;;;6.50;2.73;;;17.30;1.00;;;;;;5033866;28;20425;-75
2023/10/05 11:08:21;;;;;;;9.33;2.03;;;17.70;1.00;;;;;;5034817;28;20409;-69
2023/10/05 11:10:59;;;;;;;5.23;2.13;;;17.90;1.00;;;;;;5033685;28;20458;-69
2023/10/05 11:13:26;;;;;;;6.00;1.90;;;18.10;1.00;;;;;;5042629;28;20425;-76
2023/10/05 11:15:57;;;;;;;6.00;1.83;;;18.30;1.00;;;;;;5053706;28;20511;-71
2023/10/05 11:18:31;;;;;;;6.47;1.57;;;18.30;1.00;;;;;;5036569;28;20421;-70
2023/10/05 11:21:11;;;;;;;11.67;1.70;;;18.30;1.00;;;;;;5036619;28;20420;-70
2023/10/05 11:23:47;;;;;;;4.20;2.47;;;18.30;1.00;;;;;;5054164;28;20912;-75
2023/10/05 11:26:17;;;;;;;6.50;2.90;;;18.40;1.00;;;;;;5053149;28;20444;-69
2023/10/05 11:28:52;;;;;;;2.63;1.40;;;18.50;1.00;;;;;;5053870;28;20432;-69
2023/10/05 11:31:26;;;;;;;2.17;1.50;;;18.20;1.00;;;;;;5035466;28;20806;-69
2023/10/05 11:33:56;;;;;;;4.10;1.40;;;18.10;1.00;;;;;;5053242;28;20503;-76
2023/10/05 11:36:27;;;;;;;6.80;1.60;;;17.80;1.00;;;;;;5052974;28;20949;-73
2023/10/05 11:38:59;;;;;;;3.40;1.30;;;17.70;1.00;;;;;;5054327;28;20471;-75
2023/10/05 11:41:28;;;;;;;3.27;1.87;;;17.50;1.00;;;;;;5052820;28;20429;-76
2023/10/05 11:43:55;;;;;;;5.93;1.97;;;17.40;1.00;;;;;;5053314;28;20406;-77
2023/10/05 11:46:42;;;;;;;3.40;1.87;;;17.60;1.00;;;;;;5053858;28;20460;-70
2023/10/05 11:49:10;;;;;;;3.17;1.33;;;17.80;1.00;;;;;;5053061;28;20397;-71
2023/10/05 11:51:44;;;;;;;7.60;1.97;;;18.10;1.00;;;;;;5053763;28;20539;-71
2023/10/05 11:54:11;;;;;;;5.13;1.30;;;18.40;1.00;;;;;;5051893;28;20421;-77
2023/10/05 11:56:40;;;;;;;5.67;1.60;;;18.70;1.00;;;;;;5052416;28;20441;-75
2023/10/05 11:59:07;;;;;;;2.53;1.50;;;18.80;1.00;;;;;;5053686;28;20397;-74
2023/10/05 12:01:33;;;;;;;6.00;2.20;;;18.80;1.00;;;;;;5053804;28;20393;-76
2023/10/05 12:03:59;;;;;;;8.40;1.70;;;18.90;1.00;;;;;;5051661;28;21201;-76
2023/10/05 12:06:25;;;;;;;5.90;1.60;;;18.90;1.00;;;;;;5052575;28;20507;-70
2023/10/05 12:09:00;;;;;;;9.60;1.80;;;19.00;1.00;;;;;;5053564;28;20635;-75
2023/10/05 12:11:29;;;;;;;5.53;1.67;;;19.20;1.00;;;;;;5034417;28;20543;-75
2023/10/05 12:13:58;;;;;;;5.37;1.20;;;19.40;1.00;;;;;;5052507;28;20401;-70
2023/10/05 12:16:32;;;;;;;9.37;2.07;;;19.50;1.00;;;;;;5052183;28;20433;-73
2023/10/05 12:19:12;;;;;;;5.93;2.17;;;19.50;1.00;;;;;;5053383;28;20460;-71
2023/10/05 12:21:42;;;;;;;10.60;2.03;;;19.60;1.00;;;;;;5053358;28;20428;-75
2023/10/05 12:24:10;;;;;;;5.53;1.40;;;19.60;1.00;;;;;;5051975;28;20496;-77
2023/10/05 12:26:37;;;;;;;7.40;1.57;;;19.60;1.00;;;;;;5050117;28;20501;-76
2023/10/05 12:29:02;;;;;;;4.10;1.50;;;19.90;1.00;;;;;;5052096;28;20444;-77
2023/10/05 12:31:28;;;;;;;4.50;1.90;;;20.60;1.00;;;;;;5035331;28;20453;-77
2023/10/05 12:33:54;;;;;;;2.60;1.40;;;21.20;1.00;;;;;;5052301;28;20877;-76
2023/10/05 12:36:22;;;;;;;6.13;2.10;;;21.90;1.00;;;;;;5053096;28;20187;-72
2023/10/05 12:38:48;;;;;;;9.27;2.10;;;22.50;1.00;;;;;;5052972;28;20226;-71
2023/10/05 12:41:14;;;;;;;3.90;1.40;;;23.30;99.90;;;;;;5051760;28;20541;-77
2023/10/05 12:43:43;;;;;;;3.23;1.37;;;24.00;99.90;;;;;;5050497;28;20257;-77
2023/10/05 12:46:12;;;;;;;4.60;1.40;;;24.50;99.90;;;;;;5052939;28;20271;-78
2023/10/05 12:48:39;;;;;;;5.30;1.40;;;25.20;99.90;;;;;;5051756;28;20436;-78
2023/10/05 12:51:08;;;;;;;2.27;1.30;;;25.80;99.90;;;;;;5050428;28;20456;-77
2023/10/05 12:53:36;;;;;;;11.03;1.57;;;25.70;99.90;;;;;;5052237;28;20406;-73
2023/10/05 12:56:03;;;;;;;3.33;1.10;;;26.40;99.90;;;;;;5051023;28;20409;-73
2023/10/05 12:58:29;;;;;;;3.30;1.57;;;26.10;99.90;;;;;;5052697;28;20757;-72
2023/10/05 13:00:56;;;;;;;7.10;1.53;;;25.30;99.90;;;;;;5052233;28;20402;-77
2023/10/05 13:03:25;;;;;;;6.50;1.20;;;24.90;99.90;;;;;;5051416;28;20508;-75
2023/10/05 13:05:51;;;;;;;4.30;1.27;;;24.90;99.90;;;;;;5051993;28;20425;-73
2023/10/05 13:08:20;;;;;;;7.43;1.80;;;25.00;99.90;;;;;;5052952;28;20547;-77
2023/10/05 13:10:46;;;;;;;3.43;1.27;;;25.90;99.90;;;;;;5052673;28;20454;-76
2023/10/05 13:13:20;;;;;;;3.80;1.50;;;26.20;99.90;;;;;;5051568;28;20455;-76
2023/10/05 13:15:46;;;;;;;4.27;1.30;;;26.60;99.90;;;;;;5050467;28;20948;-76
2023/10/05 13:18:18;;;;;;;6.97;1.30;;;27.40;99.90;;;;;;5052725;28;20397;-73
2023/10/05 13:20:45;;;;;;;4.60;1.37;;;28.10;99.90;;;;;;5052113;28;20401;-73
2023/10/05 13:23:12;;;;;;;50.40;1.93;;;28.80;99.90;;;;;;5052568;28;20412;-72
2023/10/05 13:25:44;;;;;;;3.50;1.30;;;27.80;99.90;;;;;;5051644;28;20429;-72
2023/10/05 13:28:13;;;;;;;4.97;1.20;;;27.90;99.90;;;;;;5051388;28;20444;-74
2023/10/05 13:30:43;;;;;;;3.60;1.57;;;28.10;99.90;;;;;;5052272;28;20449;-73
2023/10/05 13:33:13;;;;;;;3.43;1.40;;;28.50;99.90;;;;;;5052520;28;20389;-77
2023/10/05 13:35:44;;;;;;;3.60;1.30;;;28.90;99.90;;;;;;5050660;28;20445;-71
2023/10/05 13:38:16;;;;;;;2.90;1.17;;;28.20;99.90;;;;;;5051889;28;20389;-75
2023/10/05 13:40:57;;;;;;;3.13;1.17;;;27.00;99.90;;;;;;5051358;28;20487;-77